Jefferson, NC

12:28 PM EDT on June 02, 2015 (GMT -0400)
Ashe County | | Change Station
CLOSE
Current Station
Airport
Location: Jefferson,
Elevation: 3179 ft
Nearby Weather Stations

Elev 3179 ft 36.43 °N, 81.42 °W | Updated 13 minutes ago

Overcast
Overcast
67 °F
Feels Like 67 °F
N
0
Wind Variable Wind from North

Today
High -- | Low -- °F
--% Chance of Precip.
Yesterday
High -- | Low -- °F
Precip. -- in
6:08 AM 8:38 PM
Full, 100% visible
Pressure 30.11 in
Visibility 10.0 miles
Clouds Mostly Cloudy 2600 ft
Mostly Cloudy 3400 ft
Mostly Cloudy 4600 ft
Dew Point 55 °F
Humidity 65%
Rainfall 0.00 in
Snow Depth Not available.
UV 6 out of 12
Pollen 2.60 out of 12
Air Quality Not available.
Flu Activity No Activity
METAR KGEV 021615Z AUTO 00000KT 10SM BKN026 BKN034 BKN046 20/13 A3011 RMK AO2 T01950128

More Conditions Fewer Conditions

Pressure 30.11 in
Visibility 10.0 miles
Clouds Mostly Cloudy 2600 ft
Mostly Cloudy 3400 ft
Mostly Cloudy 4600 ft
Dew Point 55 °F
Humidity 65%
Rainfall 0.00 in
Snow Depth Not available.
UV 6 out of 12
Pollen 2.60 out of 12
Air Quality Not available.
Flu Activity No Activity
METAR KGEV 021615Z AUTO 00000KT 10SM BKN026 BKN034 BKN046 20/13 A3011 RMK AO2 T01950128

More Conditions Fewer Conditions

10-Day Weather Forecast

Almanac

Astronomy

Jun. 02, 2015 Rise Set
Actual Time
Civil Twilight
Nautical Twilight
Astronomical Twilight
Moon
Length of Visible Light
Length of Day
Tomorrow will be .
, % of the Moon is Illuminated

Today's Extremes

State Highs State Lows

Community

WunderPhotos

Upload Photos

1,825,974 photos uploaded!

WunderBlogs® & News

Nearby

Air Quality

  Air Quality AQ Index Pollutant
Not available.

Snow Depth

Station Depth Elevation

Earthquake Activity

City Distance Mag. Time & Date
Minimum magnitude displayed is 2.5.

Coastal Water Temperatures

Place Temperature

Stations

Nearby Weather Stations

Station Location Temp. Windchill Dew Point Humidity Wind Precip. Elev Updated Type